createdAt,value
2018-06-09T00:00:42.199Z,87.50
2018-06-09T00:03:24.168Z,88.40
2018-06-09T00:06:06.341Z,88.90
2018-06-09T00:08:47.657Z,88.60
2018-06-09T00:14:09.685Z,88.80
2018-06-09T00:16:51.202Z,89.00
2018-06-09T00:19:32.661Z,88.90
2018-06-09T00:22:13.927Z,89.00
2018-06-09T00:24:55.584Z,89.20
2018-06-09T00:27:36.760Z,89.10
2018-06-09T00:30:18.045Z,89.20
2018-06-09T00:32:59.413Z,89.30
2018-06-09T00:35:40.736Z,89.30
2018-06-09T00:38:22.793Z,89.40
2018-06-09T00:41:04.097Z,89.50
2018-06-09T00:43:45.551Z,89.50
2018-06-09T00:46:26.908Z,89.50
2018-06-09T00:49:08.361Z,89.20
2018-06-09T00:51:49.704Z,88.60
2018-06-09T00:54:31.202Z,88.00
2018-06-09T00:57:12.615Z,87.40
2018-06-09T00:59:54.192Z,87.30
2018-06-09T01:02:35.512Z,87.10
2018-06-09T01:05:16.837Z,86.80
2018-06-09T01:07:58.270Z,86.50
2018-06-09T01:10:39.444Z,86.40
2018-06-09T01:13:21.230Z,87.20
2018-06-09T01:16:02.436Z,87.10
2018-06-09T01:18:43.767Z,86.80
2018-06-09T01:21:25.589Z,86.60
2018-06-09T01:24:07.725Z,87.50
2018-06-09T01:26:49.052Z,87.70
2018-06-09T01:29:31.079Z,87.20
2018-06-09T01:32:12.929Z,87.50
2018-06-09T01:34:54.248Z,87.30
2018-06-09T01:37:35.744Z,87.40
2018-06-09T01:40:17.932Z,87.40
2018-06-09T01:45:40.037Z,88.00
2018-06-09T01:48:22.303Z,88.10
2018-06-09T01:51:03.598Z,88.20
2018-06-09T01:53:44.880Z,88.20
2018-06-09T01:56:26.724Z,88.10
2018-06-09T02:02:30.409Z,87.50
2018-06-09T02:05:12.083Z,87.40
2018-06-09T02:07:53.475Z,87.20
2018-06-09T02:10:34.771Z,86.90
2018-06-09T02:13:15.913Z,86.80
2018-06-09T02:15:57.319Z,86.30
2018-06-09T02:18:38.478Z,86.10
2018-06-09T02:21:20.799Z,86.30
2018-06-09T02:24:02.632Z,86.60
2018-06-09T02:26:44.221Z,86.90
2018-06-09T02:29:25.685Z,87.00
2018-06-09T02:32:07.487Z,87.20
2018-06-09T02:34:49.763Z,87.40
2018-06-09T02:37:31.183Z,87.30
2018-06-09T02:40:12.739Z,87.20
2018-06-09T02:42:54.637Z,87.50
2018-06-09T02:45:35.948Z,87.60
2018-06-09T02:48:17.372Z,87.30
2018-06-09T02:50:59.458Z,87.10
2018-06-09T02:53:40.939Z,86.90
2018-06-09T02:56:22.584Z,86.90
2018-06-09T02:59:03.979Z,86.90
2018-06-09T03:01:45.380Z,87.10
2018-06-09T03:04:26.689Z,87.00
2018-06-09T03:07:08.001Z,86.70
2018-06-09T03:09:49.690Z,86.70
2018-06-09T03:12:31.235Z,86.60
2018-06-09T03:15:12.404Z,86.30
2018-06-09T03:17:54.125Z,86.40
2018-06-09T03:20:35.407Z,86.40
2018-06-09T03:23:16.677Z,86.20
2018-06-09T03:25:57.985Z,86.40
2018-06-09T03:28:39.235Z,86.50
2018-06-09T03:31:21.276Z,86.40
2018-06-09T03:34:02.523Z,86.70
2018-06-09T03:36:43.837Z,86.30
2018-06-09T03:39:25.381Z,86.30
2018-06-09T03:42:06.829Z,86.30
2018-06-09T03:44:48.148Z,86.50
2018-06-09T03:47:29.544Z,86.80
2018-06-09T03:50:10.857Z,87.10
2018-06-09T03:52:52.508Z,87.50
2018-06-09T03:55:33.933Z,87.50
2018-06-09T03:58:15.940Z,87.60
2018-06-09T04:00:57.528Z,87.80
2018-06-09T04:03:38.827Z,88.00
2018-06-09T04:06:20.832Z,88.10
2018-06-09T04:11:43.143Z,88.00
2018-06-09T04:14:24.799Z,88.10
2018-06-09T04:17:06.109Z,88.10
2018-06-09T04:19:47.393Z,87.90
2018-06-09T04:22:29.568Z,88.00
2018-06-09T04:25:10.903Z,88.10
2018-06-09T04:27:52.482Z,88.20
2018-06-09T04:30:33.717Z,87.80
2018-06-09T04:33:15.395Z,87.40
2018-06-09T04:35:56.736Z,87.50
2018-06-09T04:38:38.060Z,87.50
2018-06-09T04:41:19.888Z,87.20
2018-06-09T04:44:01.082Z,87.10
2018-06-09T04:46:42.247Z,87.10
2018-06-09T04:49:24.031Z,87.00
2018-06-09T04:52:05.420Z,86.50
2018-06-09T04:54:46.683Z,86.00
2018-06-09T04:57:27.995Z,85.60
2018-06-09T05:00:09.187Z,85.00
2018-06-09T05:02:51.334Z,85.00
2018-06-09T05:05:32.723Z,85.20
2018-06-09T05:08:13.932Z,85.30
2018-06-09T05:10:55.287Z,85.30
2018-06-09T05:13:36.559Z,84.40
2018-06-09T05:16:18.086Z,84.10
2018-06-09T05:18:59.496Z,83.50
2018-06-09T05:21:40.808Z,82.80
2018-06-09T05:24:22.483Z,83.30
2018-06-09T05:27:04.271Z,82.00
2018-06-09T05:29:45.623Z,82.10
2018-06-09T05:32:26.967Z,81.90
2018-06-09T05:35:08.410Z,81.70
2018-06-09T05:37:50.721Z,81.40
2018-06-09T05:40:32.319Z,80.50
2018-06-09T05:43:13.597Z,79.90
2018-06-09T05:45:55.465Z,79.60
2018-06-09T05:48:36.891Z,79.70
2018-06-09T05:51:18.201Z,79.60
2018-06-09T05:53:59.520Z,79.60
2018-06-09T05:56:40.964Z,79.60
2018-06-09T05:59:22.457Z,79.00
2018-06-09T06:02:04.000Z,78.40
2018-06-09T06:04:45.444Z,78.00
2018-06-09T06:07:26.828Z,78.20
2018-06-09T06:10:08.556Z,78.40
2018-06-09T06:12:50.638Z,78.50
2018-06-09T06:15:32.466Z,77.80
2018-06-09T06:18:14.013Z,77.60
2018-06-09T06:20:55.360Z,76.40
2018-06-09T06:23:39.990Z,76.60
2018-06-09T06:26:22.670Z,76.80
2018-06-09T06:29:03.938Z,76.50
2018-06-09T06:31:59.945Z,76.50
2018-06-09T06:34:41.334Z,76.30
2018-06-09T06:37:23.359Z,76.20
2018-06-09T06:40:05.651Z,75.90
2018-06-09T06:42:46.813Z,75.50
2018-06-09T06:45:28.097Z,75.60
2018-06-09T06:48:09.449Z,75.90
2018-06-09T06:50:51.195Z,75.80
2018-06-09T06:53:32.608Z,76.10
2018-06-09T06:56:14.028Z,75.40
2018-06-09T06:58:55.329Z,75.30
2018-06-09T07:01:36.643Z,76.10
2018-06-09T07:04:18.013Z,75.80
2018-06-09T07:06:59.432Z,75.10
2018-06-09T07:09:40.577Z,74.90
2018-06-09T07:12:22.628Z,74.30
2018-06-09T07:15:04.129Z,72.80
2018-06-09T07:17:45.459Z,72.10
2018-06-09T07:20:26.808Z,72.20
2018-06-09T07:23:08.117Z,71.30
2018-06-09T07:25:49.643Z,71.00
2018-06-09T07:28:31.044Z,69.00
2018-06-09T07:31:13.496Z,67.90
2018-06-09T07:33:55.276Z,66.70
2018-06-09T07:36:36.673Z,67.80
2018-06-09T07:39:18.069Z,68.30
2018-06-09T07:41:59.526Z,67.20
2018-06-09T07:44:41.015Z,66.90
2018-06-09T07:47:22.560Z,66.10
2018-06-09T07:50:03.939Z,65.60
2018-06-09T07:52:45.537Z,65.70
2018-06-09T07:55:27.093Z,66.20
2018-06-09T07:58:08.357Z,66.60
2018-06-09T08:00:50.720Z,65.50
2018-06-09T08:03:32.205Z,65.60
2018-06-09T08:06:13.695Z,64.40
2018-06-09T08:08:55.464Z,65.50
2018-06-09T08:11:37.652Z,66.40
2018-06-09T08:14:20.651Z,64.30
2018-06-09T08:17:02.231Z,62.50
2018-06-09T08:19:44.340Z,62.60
2018-06-09T08:22:25.636Z,62.60
2018-06-09T08:25:06.932Z,62.60
2018-06-09T08:27:48.255Z,62.60
2018-06-09T08:30:30.111Z,62.80
2018-06-09T08:33:11.716Z,62.90
2018-06-09T08:35:53.652Z,61.70
2018-06-09T08:38:35.556Z,62.90
2018-06-09T08:41:17.115Z,62.10
2018-06-09T08:43:58.505Z,62.30
2018-06-09T08:46:54.440Z,59.00
2018-06-09T08:49:35.757Z,59.40
2018-06-09T08:52:17.262Z,59.10
2018-06-09T08:54:58.711Z,60.50
2018-06-09T08:57:40.012Z,59.00
2018-06-09T09:00:22.779Z,59.00
2018-06-09T09:03:04.055Z,60.00
2018-06-09T09:05:45.560Z,59.20
2018-06-09T09:08:26.764Z,58.40
2018-06-09T09:11:08.350Z,56.40
2018-06-09T09:13:50.339Z,55.50
2018-06-09T09:16:31.753Z,56.10
2018-06-09T09:19:13.161Z,55.60
2018-06-09T09:21:55.354Z,57.80
2018-06-09T09:24:36.915Z,57.80
2018-06-09T09:27:18.219Z,55.00
2018-06-09T09:29:59.671Z,57.10
2018-06-09T09:32:40.978Z,56.60
2018-06-09T09:35:22.943Z,58.40
2018-06-09T09:38:04.414Z,58.70
2018-06-09T09:40:45.768Z,56.50
2018-06-09T09:43:27.087Z,55.80
2018-06-09T09:46:08.243Z,55.50
2018-06-09T09:48:49.963Z,56.00
2018-06-09T09:51:31.696Z,56.20
2018-06-09T09:54:13.163Z,57.40
2018-06-09T09:56:55.975Z,57.00
2018-06-09T09:59:37.279Z,55.30
2018-06-09T10:02:18.610Z,55.90
2018-06-09T10:05:00.064Z,54.60
2018-06-09T10:07:41.498Z,54.90
2018-06-09T10:10:23.759Z,54.30
2018-06-09T10:13:05.343Z,55.90
2018-06-09T10:15:46.726Z,56.30
2018-06-09T10:18:27.930Z,57.00
2018-06-09T10:21:09.460Z,57.40
2018-06-09T10:23:51.608Z,58.00
2018-06-09T10:26:32.903Z,56.30
2018-06-09T10:29:14.199Z,55.90
2018-06-09T10:31:55.648Z,55.40
2018-06-09T10:34:37.060Z,55.90
2018-06-09T10:37:18.360Z,55.10
2018-06-09T10:39:59.736Z,55.70
2018-06-09T10:42:41.060Z,56.30
2018-06-09T10:45:22.731Z,56.30
2018-06-09T10:48:04.015Z,56.90
2018-06-09T10:50:45.320Z,56.60
2018-06-09T10:53:26.489Z,56.80
2018-06-09T10:56:07.826Z,57.70
2018-06-09T10:58:49.847Z,58.00
2018-06-09T11:01:31.242Z,58.60
2018-06-09T11:04:12.571Z,58.80
2018-06-09T11:06:54.239Z,59.10
2018-06-09T11:09:35.540Z,59.10
2018-06-09T11:12:16.992Z,59.00
2018-06-09T11:14:59.001Z,58.90
2018-06-09T11:17:40.633Z,58.90
2018-06-09T11:20:22.818Z,59.10
2018-06-09T11:23:04.135Z,58.50
2018-06-09T11:25:46.100Z,58.00
2018-06-09T11:28:27.485Z,56.90
2018-06-09T11:31:08.828Z,57.20
2018-06-09T11:33:51.019Z,56.60
2018-06-09T11:36:32.361Z,57.20
2018-06-09T11:39:13.968Z,56.00
2018-06-09T11:41:55.606Z,56.60
2018-06-09T11:44:37.493Z,55.30
2018-06-09T11:47:18.848Z,54.90
2018-06-09T11:50:00.371Z,55.20
2018-06-09T11:52:42.009Z,55.50
2018-06-09T11:55:23.534Z,54.70
2018-06-09T11:58:04.968Z,55.60
2018-06-09T12:00:46.176Z,55.80
2018-06-09T12:03:27.818Z,56.10
2018-06-09T12:06:09.248Z,55.90
2018-06-09T12:08:51.689Z,55.50
2018-06-09T12:11:33.040Z,55.50
2018-06-09T12:14:14.499Z,55.90
2018-06-09T12:16:56.007Z,55.70
2018-06-09T12:19:37.363Z,55.70
2018-06-09T12:22:18.658Z,54.80
2018-06-09T12:25:00.209Z,54.90
2018-06-09T12:27:41.700Z,56.00
2018-06-09T12:30:23.552Z,55.60
2018-06-09T12:33:05.039Z,55.80
2018-06-09T12:35:46.323Z,56.10
2018-06-09T12:38:27.765Z,56.40
2018-06-09T12:41:09.179Z,55.80
2018-06-09T12:43:51.580Z,56.10
2018-06-09T12:46:33.256Z,55.60
2018-06-09T12:49:14.671Z,56.00
2018-06-09T12:51:56.148Z,55.70
2018-06-09T12:54:37.295Z,55.80
2018-06-09T12:57:18.624Z,55.70
2018-06-09T13:00:00.142Z,56.30
2018-06-09T13:02:41.833Z,56.10
2018-06-09T13:08:04.974Z,56.00
2018-06-09T13:10:47.129Z,56.10
2018-06-09T13:13:28.520Z,55.70
2018-06-09T13:16:09.913Z,56.40
2018-06-09T13:18:52.848Z,58.00
2018-06-09T13:21:34.404Z,57.70
2018-06-09T13:24:15.839Z,58.20
2018-06-09T13:26:57.366Z,58.30
2018-06-09T13:29:39.080Z,58.20
2018-06-09T13:32:21.595Z,58.30
2018-06-09T13:35:03.025Z,58.40
2018-06-09T13:37:44.408Z,58.20
2018-06-09T13:40:25.844Z,58.60
2018-06-09T13:43:07.183Z,59.40
2018-06-09T13:45:48.694Z,60.20
2018-06-09T13:48:30.185Z,60.60
2018-06-09T13:51:11.400Z,60.50
2018-06-09T13:53:52.892Z,61.60
2018-06-09T13:56:34.041Z,60.50
2018-06-09T13:59:15.440Z,60.80
2018-06-09T14:01:56.924Z,61.10
2018-06-09T14:04:38.237Z,62.10
2018-06-09T14:07:20.017Z,63.00
2018-06-09T14:10:01.328Z,64.10
2018-06-09T14:12:42.744Z,65.50
2018-06-09T14:15:25.054Z,66.70
2018-06-09T14:18:06.612Z,68.10
2018-06-09T14:20:47.990Z,69.00
2018-06-09T14:23:29.608Z,69.20
2018-06-09T14:26:11.109Z,69.20
2018-06-09T14:31:34.223Z,69.20
2018-06-09T14:34:15.641Z,69.20
2018-06-09T14:36:57.021Z,69.40
2018-06-09T14:39:38.705Z,69.70
2018-06-09T14:42:21.255Z,71.10
2018-06-09T14:45:02.644Z,69.90
2018-06-09T14:47:43.956Z,70.40
2018-06-09T14:50:26.484Z,70.90
2018-06-09T14:53:08.072Z,71.20
2018-06-09T14:55:50.099Z,71.20
2018-06-09T14:58:31.490Z,71.60
2018-06-09T15:01:13.524Z,71.90
2018-06-09T15:03:55.416Z,73.10
2018-06-09T15:06:36.848Z,74.10
2018-06-09T15:09:18.251Z,74.60
2018-06-09T15:11:59.655Z,75.10
2018-06-09T15:14:41.180Z,75.30
2018-06-09T15:17:22.848Z,75.10
2018-06-09T15:20:04.292Z,74.50
2018-06-09T15:22:45.675Z,74.20
2018-06-09T15:25:27.012Z,74.00
2018-06-09T15:28:08.388Z,74.00
2018-06-09T15:30:49.980Z,74.20
2018-06-09T15:33:32.433Z,74.20
2018-06-09T15:36:14.979Z,74.70
2018-06-09T15:38:56.463Z,76.00
2018-06-09T15:41:38.343Z,76.70
2018-06-09T15:44:20.275Z,77.10
2018-06-09T15:47:01.863Z,77.50
2018-06-09T15:49:43.313Z,77.50
2018-06-09T15:52:25.211Z,77.70
2018-06-09T15:55:06.679Z,78.90
2018-06-09T15:57:48.050Z,78.00
2018-06-09T16:00:29.740Z,77.00
2018-06-09T16:03:11.035Z,76.70
2018-06-09T16:05:52.858Z,77.30
2018-06-09T16:08:41.168Z,78.20
2018-06-09T16:11:22.828Z,78.70
2018-06-09T16:14:04.553Z,78.70
2018-06-09T16:16:45.906Z,79.60
2018-06-09T16:19:27.240Z,80.30
2018-06-09T16:22:08.594Z,81.00
2018-06-09T16:24:55.437Z,81.30
2018-06-09T16:27:36.886Z,81.40
2018-06-09T16:30:18.189Z,81.20
2018-06-09T16:33:00.337Z,80.70
2018-06-09T16:35:41.856Z,82.10
2018-06-09T16:38:23.374Z,80.80
2018-06-09T16:41:04.683Z,81.30
2018-06-09T16:43:46.035Z,80.00
2018-06-09T16:46:27.553Z,81.70
2018-06-09T16:49:08.988Z,81.00
2018-06-09T16:51:51.434Z,81.70
2018-06-09T16:54:33.292Z,81.50
2018-06-09T16:57:14.757Z,82.90
2018-06-09T16:59:56.085Z,81.60
2018-06-09T17:02:37.505Z,81.50
2018-06-09T17:05:18.997Z,81.40
2018-06-09T17:08:00.481Z,80.60
2018-06-09T17:10:41.739Z,80.40
2018-06-09T17:13:23.298Z,80.30
2018-06-09T17:16:04.581Z,80.00
2018-06-09T17:18:45.772Z,79.70
2018-06-09T17:21:27.210Z,79.20
2018-06-09T17:24:08.602Z,79.80
2018-06-09T17:26:50.522Z,79.40
2018-06-09T17:29:31.853Z,79.20
2018-06-09T17:32:13.586Z,79.30
2018-06-09T17:34:55.293Z,79.20
2018-06-09T17:37:36.661Z,78.60
2018-06-09T17:40:18.209Z,78.80
2018-06-09T17:43:00.047Z,78.80
2018-06-09T17:45:41.644Z,78.20
2018-06-09T17:48:23.283Z,78.40
2018-06-09T17:51:04.613Z,78.50
2018-06-09T17:53:46.080Z,78.50
2018-06-09T17:56:27.435Z,78.50
2018-06-09T17:59:08.884Z,78.70
2018-06-09T18:01:50.550Z,79.00
2018-06-09T18:04:31.867Z,79.30
2018-06-09T18:07:13.340Z,79.60
2018-06-09T18:09:54.703Z,79.60
2018-06-09T18:12:36.162Z,80.10
2018-06-09T18:15:17.668Z,80.30
2018-06-09T18:17:58.991Z,80.80
2018-06-09T18:20:40.375Z,81.10
2018-06-09T18:23:23.279Z,81.40
2018-06-09T18:26:04.784Z,81.10
2018-06-09T18:28:47.150Z,81.50
2018-06-09T18:31:28.573Z,81.50
2018-06-09T18:34:09.974Z,81.20
2018-06-09T18:36:52.103Z,81.50
2018-06-09T18:39:33.519Z,81.70
2018-06-09T18:42:15.141Z,82.10
2018-06-09T18:44:57.177Z,82.60
2018-06-09T18:47:38.516Z,83.00
2018-06-09T18:50:25.714Z,83.20
2018-06-09T18:54:11.152Z,83.40
2018-06-09T18:56:53.284Z,83.70
2018-06-09T18:59:35.670Z,83.60
2018-06-09T19:02:50.402Z,83.50
2018-06-09T19:05:31.737Z,83.70
2018-06-09T19:08:13.347Z,83.90
2018-06-09T19:10:55.407Z,84.40
2018-06-09T19:13:36.973Z,85.80
2018-06-09T19:16:18.373Z,84.60
2018-06-09T19:19:00.404Z,84.90
2018-06-09T19:21:41.775Z,84.80
2018-06-09T19:24:23.213Z,84.70
2018-06-09T19:27:04.939Z,84.90
2018-06-09T19:29:47.763Z,85.00
2018-06-09T19:35:10.252Z,85.10
2018-06-09T19:37:52.516Z,85.10
2018-06-09T19:40:33.701Z,85.30
2018-06-09T19:43:15.114Z,85.90
2018-06-09T19:45:56.802Z,85.80
2018-06-09T19:48:38.225Z,85.80
2018-06-09T19:51:20.487Z,85.70
2018-06-09T19:54:02.006Z,85.70
2018-06-09T19:56:43.328Z,85.70
2018-06-09T19:59:24.636Z,85.70
2018-06-09T20:02:06.023Z,85.80
2018-06-09T20:04:47.556Z,85.70
2018-06-09T20:07:28.928Z,85.70
2018-06-09T20:10:10.471Z,85.70
2018-06-09T20:12:53.189Z,85.70
2018-06-09T20:15:34.541Z,86.10
2018-06-09T20:18:16.261Z,86.50
2018-06-09T20:20:57.732Z,86.80
2018-06-09T20:23:39.197Z,86.70
2018-06-09T20:26:21.316Z,86.70
2018-06-09T20:29:03.423Z,86.60
2018-06-09T20:31:44.931Z,86.70
2018-06-09T20:34:26.156Z,86.80
2018-06-09T20:37:07.595Z,86.90
2018-06-09T20:39:48.942Z,86.80
2018-06-09T20:42:30.472Z,86.80
2018-06-09T20:45:11.962Z,87.00
2018-06-09T20:47:53.418Z,86.80
2018-06-09T20:50:34.742Z,86.50
2018-06-09T20:53:17.277Z,86.60
2018-06-09T20:55:58.644Z,86.60
2018-06-09T20:58:40.800Z,86.50
2018-06-09T21:01:23.921Z,86.20
2018-06-09T21:04:05.383Z,86.10
2018-06-09T21:06:46.766Z,85.70
2018-06-09T21:09:28.389Z,85.70
2018-06-09T21:12:09.908Z,86.20
2018-06-09T21:14:52.133Z,86.20
2018-06-09T21:17:33.990Z,86.00
2018-06-09T21:20:15.429Z,85.70
2018-06-09T21:22:56.740Z,86.00
2018-06-09T21:25:38.073Z,86.20
2018-06-09T21:28:26.047Z,86.00
2018-06-09T21:31:12.917Z,86.00
2018-06-09T21:34:11.194Z,86.20
2018-06-09T21:36:57.881Z,85.60
2018-06-09T21:39:44.452Z,85.70
2018-06-09T21:42:26.656Z,85.80
2018-06-09T21:45:10.034Z,85.60
2018-06-09T21:47:52.254Z,85.70
2018-06-09T21:50:33.601Z,86.10
2018-06-09T21:53:15.252Z,86.10
2018-06-09T21:55:56.881Z,86.00
2018-06-09T21:58:38.264Z,86.00
2018-06-09T22:01:19.600Z,85.70
2018-06-09T22:04:01.150Z,85.80
2018-06-09T22:06:42.683Z,86.00
2018-06-09T22:09:24.377Z,86.00
2018-06-09T22:12:05.795Z,85.80
2018-06-09T22:14:47.269Z,85.40
2018-06-09T22:17:28.724Z,85.90
2018-06-09T22:20:10.204Z,85.90
2018-06-09T22:22:52.111Z,86.20
2018-06-09T22:25:39.215Z,86.40
2018-06-09T22:28:20.488Z,86.20
2018-06-09T22:31:01.876Z,86.40
2018-06-09T22:33:43.594Z,86.80
2018-06-09T22:36:25.736Z,86.70
2018-06-09T22:39:08.446Z,86.70
2018-06-09T22:41:51.502Z,86.60
2018-06-09T22:44:33.080Z,86.60
2018-06-09T22:47:14.446Z,86.70
2018-06-09T22:49:56.130Z,87.00
2018-06-09T22:52:37.504Z,87.30
2018-06-09T22:55:19.026Z,87.30
2018-06-09T22:58:00.911Z,87.50
2018-06-09T23:00:49.515Z,87.40
2018-06-09T23:03:30.932Z,87.50
2018-06-09T23:06:12.291Z,87.70
2018-06-09T23:08:54.382Z,87.70
2018-06-09T23:11:35.924Z,87.60
2018-06-09T23:14:17.333Z,87.20
2018-06-09T23:16:58.672Z,87.30
2018-06-09T23:19:40.017Z,87.30
2018-06-09T23:22:22.116Z,87.40
2018-06-09T23:25:04.221Z,87.20
2018-06-09T23:27:45.531Z,87.30
2018-06-09T23:30:27.089Z,87.20
2018-06-09T23:33:08.555Z,87.20
2018-06-09T23:35:50.505Z,87.10
2018-06-09T23:38:32.048Z,87.20
2018-06-09T23:41:13.731Z,87.00
2018-06-09T23:43:55.550Z,86.70
2018-06-09T23:46:36.791Z,86.70
2018-06-09T23:49:18.456Z,86.70
2018-06-09T23:52:00.650Z,86.40
2018-06-09T23:54:42.162Z,86.20
2018-06-09T23:57:24.491Z,86.00
